sensor_id;sensor_type;location;lat;lon;timestamp;P1;durP1;ratioP1;P2;durP2;ratioP2
3022;SDS011;1521;53.584;9.938;2023-08-20T00:02:07;18.63;;;10.30;;
3022;SDS011;1521;53.584;9.938;2023-08-20T00:04:35;22.87;;;11.40;;
3022;SDS011;1521;53.584;9.938;2023-08-20T00:07:02;22.27;;;11.03;;
3022;SDS011;1521;53.584;9.938;2023-08-20T00:09:28;22.03;;;11.53;;
3022;SDS011;1521;53.584;9.938;2023-08-20T00:11:55;19.33;;;10.40;;
3022;SDS011;1521;53.584;9.938;2023-08-20T00:14:21;26.37;;;12.40;;
3022;SDS011;1521;53.584;9.938;2023-08-20T00:17:32;23.47;;;12.77;;
3022;SDS011;1521;53.584;9.938;2023-08-20T00:20:02;31.70;;;13.40;;
3022;SDS011;1521;53.584;9.938;2023-08-20T00:22:35;21.33;;;12.23;;
3022;SDS011;1521;53.584;9.938;2023-08-20T00:25:01;26.00;;;11.40;;
3022;SDS011;1521;53.584;9.938;2023-08-20T00:27:29;23.57;;;12.67;;
3022;SDS011;1521;53.584;9.938;2023-08-20T00:29:54;23.83;;;12.87;;
3022;SDS011;1521;53.584;9.938;2023-08-20T00:32:20;25.13;;;13.53;;
3022;SDS011;1521;53.584;9.938;2023-08-20T00:34:45;23.90;;;11.87;;
3022;SDS011;1521;53.584;9.938;2023-08-20T00:37:11;30.80;;;11.37;;
3022;SDS011;1521;53.584;9.938;2023-08-20T00:39:37;27.53;;;12.03;;
3022;SDS011;1521;53.584;9.938;2023-08-20T00:42:03;19.47;;;11.63;;
3022;SDS011;1521;53.584;9.938;2023-08-20T00:44:29;29.20;;;13.00;;
3022;SDS011;1521;53.584;9.938;2023-08-20T00:46:55;22.70;;;12.40;;
3022;SDS011;1521;53.584;9.938;2023-08-20T00:49:21;23.80;;;12.90;;
3022;SDS011;1521;53.584;9.938;2023-08-20T00:51:47;26.57;;;13.63;;
3022;SDS011;1521;53.584;9.938;2023-08-20T00:54:14;21.50;;;12.07;;
3022;SDS011;1521;53.584;9.938;2023-08-20T00:56:39;28.00;;;12.40;;
3022;SDS011;1521;53.584;9.938;2023-08-20T00:59:05;28.30;;;13.90;;
3022;SDS011;1521;53.584;9.938;2023-08-20T01:01:31;27.73;;;12.67;;
3022;SDS011;1521;53.584;9.938;2023-08-20T01:03:56;36.70;;;14.90;;
3022;SDS011;1521;53.584;9.938;2023-08-20T01:08:57;24.83;;;14.03;;
3022;SDS011;1521;53.584;9.938;2023-08-20T01:11:40;34.03;;;13.63;;
3022;SDS011;1521;53.584;9.938;2023-08-20T01:14:15;29.03;;;13.17;;
3022;SDS011;1521;53.584;9.938;2023-08-20T01:16:41;27.73;;;13.60;;
3022;SDS011;1521;53.584;9.938;2023-08-20T01:19:07;32.00;;;12.50;;
3022;SDS011;1521;53.584;9.938;2023-08-20T01:27:43;23.70;;;13.37;;
3022;SDS011;1521;53.584;9.938;2023-08-20T01:30:17;27.70;;;15.10;;
3022;SDS011;1521;53.584;9.938;2023-08-20T01:32:45;25.07;;;13.77;;
3022;SDS011;1521;53.584;9.938;2023-08-20T01:35:12;31.33;;;13.93;;
3022;SDS011;1521;53.584;9.938;2023-08-20T01:37:40;33.20;;;15.17;;
3022;SDS011;1521;53.584;9.938;2023-08-20T01:40:06;25.57;;;14.10;;
3022;SDS011;1521;53.584;9.938;2023-08-20T01:42:39;30.60;;;13.77;;
3022;SDS011;1521;53.584;9.938;2023-08-20T01:45:05;33.33;;;15.80;;
3022;SDS011;1521;53.584;9.938;2023-08-20T01:47:32;37.77;;;14.70;;
3022;SDS011;1521;53.584;9.938;2023-08-20T01:49:57;34.83;;;16.00;;
3022;SDS011;1521;53.584;9.938;2023-08-20T01:52:23;29.83;;;13.10;;
3022;SDS011;1521;53.584;9.938;2023-08-20T01:54:49;35.77;;;15.50;;
3022;SDS011;1521;53.584;9.938;2023-08-20T01:57:15;25.90;;;14.93;;
3022;SDS011;1521;53.584;9.938;2023-08-20T01:59:40;31.57;;;15.87;;
3022;SDS011;1521;53.584;9.938;2023-08-20T02:02:06;42.77;;;17.40;;
3022;SDS011;1521;53.584;9.938;2023-08-20T02:04:32;39.23;;;16.70;;
3022;SDS011;1521;53.584;9.938;2023-08-20T02:06:58;41.80;;;18.17;;
3022;SDS011;1521;53.584;9.938;2023-08-20T02:09:24;39.27;;;15.50;;
3022;SDS011;1521;53.584;9.938;2023-08-20T02:11:50;28.67;;;14.33;;
3022;SDS011;1521;53.584;9.938;2023-08-20T02:14:16;38.77;;;14.70;;
3022;SDS011;1521;53.584;9.938;2023-08-20T02:16:42;24.17;;;13.20;;
3022;SDS011;1521;53.584;9.938;2023-08-20T02:19:07;31.90;;;14.00;;
3022;SDS011;1521;53.584;9.938;2023-08-20T02:21:33;40.80;;;16.47;;
3022;SDS011;1521;53.584;9.938;2023-08-20T02:23:59;35.50;;;18.20;;
3022;SDS011;1521;53.584;9.938;2023-08-20T02:26:24;39.97;;;17.53;;
3022;SDS011;1521;53.584;9.938;2023-08-20T02:28:50;35.17;;;16.20;;
3022;SDS011;1521;53.584;9.938;2023-08-20T02:31:15;44.33;;;18.23;;
3022;SDS011;1521;53.584;9.938;2023-08-20T02:33:41;45.40;;;19.87;;
3022;SDS011;1521;53.584;9.938;2023-08-20T02:36:06;37.53;;;19.97;;
3022;SDS011;1521;53.584;9.938;2023-08-20T02:38:32;46.90;;;20.30;;
3022;SDS011;1521;53.584;9.938;2023-08-20T02:40:58;45.97;;;21.43;;
3022;SDS011;1521;53.584;9.938;2023-08-20T02:43:23;44.83;;;19.57;;
3022;SDS011;1521;53.584;9.938;2023-08-20T02:45:49;54.67;;;20.40;;
3022;SDS011;1521;53.584;9.938;2023-08-20T02:48:15;76.90;;;21.17;;
3022;SDS011;1521;53.584;9.938;2023-08-20T02:50:41;38.90;;;20.13;;
3022;SDS011;1521;53.584;9.938;2023-08-20T02:53:07;65.30;;;19.43;;
3022;SDS011;1521;53.584;9.938;2023-08-20T02:55:32;107.37;;;22.70;;
3022;SDS011;1521;53.584;9.938;2023-08-20T02:57:58;36.33;;;19.10;;
3022;SDS011;1521;53.584;9.938;2023-08-20T03:00:24;72.53;;;22.63;;
3022;SDS011;1521;53.584;9.938;2023-08-20T03:02:50;40.90;;;20.03;;
3022;SDS011;1521;53.584;9.938;2023-08-20T03:05:15;30.93;;;18.07;;
3022;SDS011;1521;53.584;9.938;2023-08-20T03:07:41;63.50;;;21.43;;
3022;SDS011;1521;53.584;9.938;2023-08-20T03:10:06;38.60;;;19.33;;
3022;SDS011;1521;53.584;9.938;2023-08-20T03:12:32;38.43;;;18.83;;
3022;SDS011;1521;53.584;9.938;2023-08-20T03:14:59;40.67;;;18.07;;
3022;SDS011;1521;53.584;9.938;2023-08-20T03:17:24;39.53;;;17.77;;
3022;SDS011;1521;53.584;9.938;2023-08-20T03:19:58;46.57;;;18.50;;
3022;SDS011;1521;53.584;9.938;2023-08-20T03:22:25;36.47;;;18.80;;
3022;SDS011;1521;53.584;9.938;2023-08-20T03:24:52;33.30;;;17.60;;
3022;SDS011;1521;53.584;9.938;2023-08-20T03:27:18;33.03;;;16.70;;
3022;SDS011;1521;53.584;9.938;2023-08-20T03:29:44;33.43;;;17.30;;
3022;SDS011;1521;53.584;9.938;2023-08-20T03:32:10;43.60;;;19.47;;
3022;SDS011;1521;53.584;9.938;2023-08-20T03:34:36;32.93;;;16.10;;
3022;SDS011;1521;53.584;9.938;2023-08-20T03:37:02;60.37;;;20.07;;
3022;SDS011;1521;53.584;9.938;2023-08-20T03:39:28;47.77;;;19.10;;
3022;SDS011;1521;53.584;9.938;2023-08-20T03:41:54;49.90;;;18.50;;
3022;SDS011;1521;53.584;9.938;2023-08-20T03:44:20;35.97;;;18.10;;
3022;SDS011;1521;53.584;9.938;2023-08-20T03:46:46;95.13;;;21.30;;
3022;SDS011;1521;53.584;9.938;2023-08-20T03:49:11;31.77;;;16.13;;
3022;SDS011;1521;53.584;9.938;2023-08-20T03:51:37;68.77;;;18.20;;
3022;SDS011;1521;53.584;9.938;2023-08-20T03:54:02;58.03;;;18.43;;
3022;SDS011;1521;53.584;9.938;2023-08-20T03:56:28;40.70;;;19.80;;
3022;SDS011;1521;53.584;9.938;2023-08-20T03:58:54;161.67;;;24.97;;
3022;SDS011;1521;53.584;9.938;2023-08-20T04:01:20;106.97;;;21.90;;
3022;SDS011;1521;53.584;9.938;2023-08-20T04:03:46;69.87;;;20.33;;
3022;SDS011;1521;53.584;9.938;2023-08-20T04:06:12;218.80;;;28.23;;
3022;SDS011;1521;53.584;9.938;2023-08-20T04:08:38;97.93;;;24.90;;
3022;SDS011;1521;53.584;9.938;2023-08-20T04:11:04;186.17;;;30.10;;
3022;SDS011;1521;53.584;9.938;2023-08-20T04:13:30;147.77;;;28.80;;
3022;SDS011;1521;53.584;9.938;2023-08-20T04:15:56;107.27;;;24.30;;
3022;SDS011;1521;53.584;9.938;2023-08-20T04:18:21;78.37;;;23.30;;
3022;SDS011;1521;53.584;9.938;2023-08-20T04:20:47;79.60;;;24.13;;
3022;SDS011;1521;53.584;9.938;2023-08-20T04:23:16;103.83;;;24.10;;
3022;SDS011;1521;53.584;9.938;2023-08-20T04:25:41;96.27;;;23.47;;
3022;SDS011;1521;53.584;9.938;2023-08-20T04:28:07;58.63;;;21.90;;
3022;SDS011;1521;53.584;9.938;2023-08-20T04:30:34;88.00;;;24.40;;
3022;SDS011;1521;53.584;9.938;2023-08-20T04:33:00;78.63;;;19.83;;
3022;SDS011;1521;53.584;9.938;2023-08-20T04:35:26;114.27;;;20.23;;
3022;SDS011;1521;53.584;9.938;2023-08-20T04:37:51;53.40;;;17.73;;
3022;SDS011;1521;53.584;9.938;2023-08-20T04:40:17;87.60;;;19.50;;
3022;SDS011;1521;53.584;9.938;2023-08-20T04:42:42;134.70;;;20.23;;
3022;SDS011;1521;53.584;9.938;2023-08-20T04:45:08;113.30;;;17.53;;
3022;SDS011;1521;53.584;9.938;2023-08-20T04:47:36;87.50;;;19.10;;
3022;SDS011;1521;53.584;9.938;2023-08-20T04:50:02;105.03;;;19.50;;
3022;SDS011;1521;53.584;9.938;2023-08-20T04:52:28;39.53;;;16.07;;
3022;SDS011;1521;53.584;9.938;2023-08-20T04:54:53;98.83;;;16.50;;
3022;SDS011;1521;53.584;9.938;2023-08-20T04:57:19;32.30;;;13.20;;
3022;SDS011;1521;53.584;9.938;2023-08-20T04:59:45;144.37;;;17.03;;
3022;SDS011;1521;53.584;9.938;2023-08-20T05:02:13;90.93;;;13.33;;
3022;SDS011;1521;53.584;9.938;2023-08-20T05:04:39;59.80;;;14.03;;
3022;SDS011;1521;53.584;9.938;2023-08-20T05:07:05;51.93;;;13.80;;
3022;SDS011;1521;53.584;9.938;2023-08-20T05:09:30;53.57;;;12.87;;
3022;SDS011;1521;53.584;9.938;2023-08-20T05:11:56;159.97;;;17.17;;
3022;SDS011;1521;53.584;9.938;2023-08-20T05:14:22;41.40;;;12.47;;
3022;SDS011;1521;53.584;9.938;2023-08-20T05:16:47;87.03;;;15.97;;
3022;SDS011;1521;53.584;9.938;2023-08-20T05:19:13;37.63;;;12.93;;
3022;SDS011;1521;53.584;9.938;2023-08-20T05:21:38;64.27;;;15.80;;
3022;SDS011;1521;53.584;9.938;2023-08-20T05:24:04;61.67;;;16.87;;
3022;SDS011;1521;53.584;9.938;2023-08-20T05:26:30;57.20;;;17.10;;
3022;SDS011;1521;53.584;9.938;2023-08-20T05:28:57;38.20;;;15.43;;
3022;SDS011;1521;53.584;9.938;2023-08-20T05:31:22;45.60;;;14.97;;
3022;SDS011;1521;53.584;9.938;2023-08-20T05:33:48;36.97;;;14.80;;
3022;SDS011;1521;53.584;9.938;2023-08-20T05:36:14;26.43;;;15.10;;
3022;SDS011;1521;53.584;9.938;2023-08-20T05:38:39;20.30;;;13.70;;
3022;SDS011;1521;53.584;9.938;2023-08-20T05:41:07;59.80;;;14.93;;
3022;SDS011;1521;53.584;9.938;2023-08-20T05:43:33;25.10;;;13.43;;
3022;SDS011;1521;53.584;9.938;2023-08-20T05:45:58;71.03;;;14.50;;
3022;SDS011;1521;53.584;9.938;2023-08-20T05:48:24;73.73;;;14.40;;
3022;SDS011;1521;53.584;9.938;2023-08-20T05:50:49;81.47;;;14.27;;
3022;SDS011;1521;53.584;9.938;2023-08-20T05:53:15;20.87;;;11.60;;
3022;SDS011;1521;53.584;9.938;2023-08-20T05:55:40;45.30;;;13.80;;
3022;SDS011;1521;53.584;9.938;2023-08-20T05:58:06;50.70;;;14.90;;
3022;SDS011;1521;53.584;9.938;2023-08-20T06:00:32;17.00;;;13.40;;
3022;SDS011;1521;53.584;9.938;2023-08-20T06:02:57;31.50;;;14.23;;
3022;SDS011;1521;53.584;9.938;2023-08-20T06:05:23;33.30;;;14.70;;
3022;SDS011;1521;53.584;9.938;2023-08-20T06:07:48;25.20;;;15.20;;
3022;SDS011;1521;53.584;9.938;2023-08-20T06:10:15;30.90;;;16.07;;
3022;SDS011;1521;53.584;9.938;2023-08-20T06:12:40;31.50;;;16.80;;
3022;SDS011;1521;53.584;9.938;2023-08-20T06:15:06;39.83;;;17.10;;
3022;SDS011;1521;53.584;9.938;2023-08-20T06:17:32;35.10;;;17.70;;
3022;SDS011;1521;53.584;9.938;2023-08-20T06:19:58;26.13;;;17.60;;
3022;SDS011;1521;53.584;9.938;2023-08-20T06:22:23;34.20;;;19.37;;
3022;SDS011;1521;53.584;9.938;2023-08-20T06:24:49;40.97;;;22.97;;
3022;SDS011;1521;53.584;9.938;2023-08-20T06:27:14;35.00;;;22.10;;
3022;SDS011;1521;53.584;9.938;2023-08-20T06:29:40;39.57;;;23.83;;
3022;SDS011;1521;53.584;9.938;2023-08-20T06:32:05;33.37;;;21.70;;
3022;SDS011;1521;53.584;9.938;2023-08-20T06:34:33;36.90;;;21.57;;
3022;SDS011;1521;53.584;9.938;2023-08-20T06:36:59;27.67;;;20.20;;
3022;SDS011;1521;53.584;9.938;2023-08-20T06:39:24;36.70;;;22.43;;
3022;SDS011;1521;53.584;9.938;2023-08-20T06:41:50;35.07;;;21.80;;
3022;SDS011;1521;53.584;9.938;2023-08-20T06:44:15;30.83;;;20.70;;
3022;SDS011;1521;53.584;9.938;2023-08-20T06:46:41;30.70;;;18.00;;
3022;SDS011;1521;53.584;9.938;2023-08-20T06:49:06;28.53;;;18.10;;
3022;SDS011;1521;53.584;9.938;2023-08-20T06:51:32;30.43;;;18.43;;
3022;SDS011;1521;53.584;9.938;2023-08-20T06:53:57;29.60;;;17.20;;
3022;SDS011;1521;53.584;9.938;2023-08-20T06:56:23;28.00;;;16.00;;
3022;SDS011;1521;53.584;9.938;2023-08-20T06:58:49;30.23;;;15.63;;
3022;SDS011;1521;53.584;9.938;2023-08-20T07:01:15;28.30;;;15.20;;
3022;SDS011;1521;53.584;9.938;2023-08-20T07:03:41;16.20;;;12.50;;
3022;SDS011;1521;53.584;9.938;2023-08-20T07:06:08;19.10;;;11.83;;
3022;SDS011;1521;53.584;9.938;2023-08-20T07:08:35;15.13;;;10.70;;
3022;SDS011;1521;53.584;9.938;2023-08-20T07:11:01;15.90;;;10.70;;
3022;SDS011;1521;53.584;9.938;2023-08-20T07:13:27;17.53;;;10.83;;
3022;SDS011;1521;53.584;9.938;2023-08-20T07:15:53;11.63;;;8.33;;
3022;SDS011;1521;53.584;9.938;2023-08-20T07:18:19;10.07;;;8.67;;
3022;SDS011;1521;53.584;9.938;2023-08-20T07:20:45;12.20;;;10.87;;
3022;SDS011;1521;53.584;9.938;2023-08-20T07:23:11;12.50;;;9.70;;
3022;SDS011;1521;53.584;9.938;2023-08-20T07:25:40;15.53;;;10.67;;
3022;SDS011;1521;53.584;9.938;2023-08-20T07:28:07;13.30;;;10.37;;
3022;SDS011;1521;53.584;9.938;2023-08-20T07:30:33;17.47;;;12.77;;
3022;SDS011;1521;53.584;9.938;2023-08-20T07:32:59;14.20;;;11.23;;
3022;SDS011;1521;53.584;9.938;2023-08-20T07:35:25;16.53;;;11.50;;
3022;SDS011;1521;53.584;9.938;2023-08-20T07:37:51;18.43;;;11.87;;
3022;SDS011;1521;53.584;9.938;2023-08-20T07:40:17;14.17;;;10.67;;
3022;SDS011;1521;53.584;9.938;2023-08-20T07:42:42;17.20;;;9.40;;
3022;SDS011;1521;53.584;9.938;2023-08-20T07:45:08;11.03;;;8.73;;
3022;SDS011;1521;53.584;9.938;2023-08-20T07:47:38;13.20;;;9.57;;
3022;SDS011;1521;53.584;9.938;2023-08-20T07:50:04;14.40;;;8.90;;
3022;SDS011;1521;53.584;9.938;2023-08-20T07:52:30;10.60;;;7.47;;
3022;SDS011;1521;53.584;9.938;2023-08-20T07:54:56;13.33;;;7.50;;
3022;SDS011;1521;53.584;9.938;2023-08-20T07:57:22;12.63;;;7.53;;
3022;SDS011;1521;53.584;9.938;2023-08-20T07:59:51;10.00;;;6.93;;
3022;SDS011;1521;53.584;9.938;2023-08-20T08:02:17;15.90;;;7.53;;
3022;SDS011;1521;53.584;9.938;2023-08-20T08:04:43;14.67;;;6.70;;
3022;SDS011;1521;53.584;9.938;2023-08-20T08:07:12;7.67;;;5.40;;
3022;SDS011;1521;53.584;9.938;2023-08-20T08:09:37;9.27;;;5.20;;
3022;SDS011;1521;53.584;9.938;2023-08-20T08:12:03;8.90;;;6.00;;
3022;SDS011;1521;53.584;9.938;2023-08-20T08:14:29;9.83;;;6.00;;
3022;SDS011;1521;53.584;9.938;2023-08-20T08:16:55;8.03;;;5.53;;
3022;SDS011;1521;53.584;9.938;2023-08-20T08:19:21;6.73;;;5.80;;
3022;SDS011;1521;53.584;9.938;2023-08-20T08:21:46;10.43;;;6.20;;
3022;SDS011;1521;53.584;9.938;2023-08-20T08:24:12;8.27;;;5.27;;
3022;SDS011;1521;53.584;9.938;2023-08-20T08:26:38;10.33;;;4.80;;
3022;SDS011;1521;53.584;9.938;2023-08-20T08:29:04;11.00;;;5.37;;
3022;SDS011;1521;53.584;9.938;2023-08-20T08:31:31;8.20;;;4.60;;
3022;SDS011;1521;53.584;9.938;2023-08-20T08:33:57;8.07;;;4.13;;
3022;SDS011;1521;53.584;9.938;2023-08-20T08:36:22;6.07;;;3.87;;
3022;SDS011;1521;53.584;9.938;2023-08-20T08:38:51;6.77;;;3.63;;
3022;SDS011;1521;53.584;9.938;2023-08-20T08:41:17;6.87;;;4.10;;
3022;SDS011;1521;53.584;9.938;2023-08-20T08:43:46;7.37;;;4.00;;
3022;SDS011;1521;53.584;9.938;2023-08-20T08:46:13;7.77;;;3.73;;
3022;SDS011;1521;53.584;9.938;2023-08-20T08:48:40;7.17;;;3.50;;
3022;SDS011;1521;53.584;9.938;2023-08-20T08:51:07;7.93;;;3.70;;
3022;SDS011;1521;53.584;9.938;2023-08-20T08:53:33;10.87;;;3.83;;
3022;SDS011;1521;53.584;9.938;2023-08-20T08:55:59;5.20;;;3.27;;
3022;SDS011;1521;53.584;9.938;2023-08-20T08:58:25;10.13;;;4.30;;
3022;SDS011;1521;53.584;9.938;2023-08-20T09:00:51;7.97;;;3.20;;
3022;SDS011;1521;53.584;9.938;2023-08-20T09:03:17;6.53;;;3.80;;
3022;SDS011;1521;53.584;9.938;2023-08-20T09:05:47;5.63;;;3.10;;
3022;SDS011;1521;53.584;9.938;2023-08-20T09:08:26;6.37;;;3.17;;
3022;SDS011;1521;53.584;9.938;2023-08-20T09:10:56;5.60;;;3.03;;
3022;SDS011;1521;53.584;9.938;2023-08-20T09:13:26;5.63;;;3.20;;
3022;SDS011;1521;53.584;9.938;2023-08-20T09:15:57;6.47;;;3.63;;
3022;SDS011;1521;53.584;9.938;2023-08-20T09:18:23;9.80;;;2.70;;
3022;SDS011;1521;53.584;9.938;2023-08-20T09:20:48;7.03;;;3.20;;
3022;SDS011;1521;53.584;9.938;2023-08-20T09:23:15;6.83;;;3.50;;
3022;SDS011;1521;53.584;9.938;2023-08-20T09:25:41;9.67;;;3.43;;
3022;SDS011;1521;53.584;9.938;2023-08-20T09:28:07;8.83;;;3.37;;
3022;SDS011;1521;53.584;9.938;2023-08-20T09:30:33;6.37;;;3.30;;
3022;SDS011;1521;53.584;9.938;2023-08-20T09:33:11;7.03;;;3.20;;
3022;SDS011;1521;53.584;9.938;2023-08-20T09:35:48;13.10;;;3.30;;
3022;SDS011;1521;53.584;9.938;2023-08-20T09:38:14;11.33;;;3.60;;
3022;SDS011;1521;53.584;9.938;2023-08-20T09:40:43;6.90;;;3.43;;
3022;SDS011;1521;53.584;9.938;2023-08-20T09:43:09;10.20;;;3.40;;
3022;SDS011;1521;53.584;9.938;2023-08-20T09:45:37;8.50;;;3.50;;
3022;SDS011;1521;53.584;9.938;2023-08-20T09:48:03;6.20;;;2.97;;
3022;SDS011;1521;53.584;9.938;2023-08-20T09:50:33;7.37;;;3.27;;
3022;SDS011;1521;53.584;9.938;2023-08-20T09:55:46;13.70;;;3.93;;
3022;SDS011;1521;53.584;9.938;2023-08-20T09:58:14;8.33;;;3.63;;
3022;SDS011;1521;53.584;9.938;2023-08-20T10:00:41;8.80;;;3.90;;
3022;SDS011;1521;53.584;9.938;2023-08-20T10:03:07;7.20;;;3.40;;
3022;SDS011;1521;53.584;9.938;2023-08-20T10:05:34;22.93;;;4.00;;
3022;SDS011;1521;53.584;9.938;2023-08-20T10:08:00;6.70;;;3.90;;
3022;SDS011;1521;53.584;9.938;2023-08-20T10:10:27;6.50;;;3.40;;
3022;SDS011;1521;53.584;9.938;2023-08-20T10:12:54;10.60;;;3.47;;
3022;SDS011;1521;53.584;9.938;2023-08-20T10:15:21;10.27;;;4.00;;
3022;SDS011;1521;53.584;9.938;2023-08-20T10:17:49;12.27;;;3.53;;
3022;SDS011;1521;53.584;9.938;2023-08-20T10:20:15;8.80;;;3.30;;
3022;SDS011;1521;53.584;9.938;2023-08-20T10:22:44;11.70;;;3.10;;
3022;SDS011;1521;53.584;9.938;2023-08-20T10:25:11;10.03;;;3.50;;
3022;SDS011;1521;53.584;9.938;2023-08-20T10:28:14;7.10;;;3.07;;
3022;SDS011;1521;53.584;9.938;2023-08-20T10:33:36;7.17;;;3.20;;
3022;SDS011;1521;53.584;9.938;2023-08-20T10:36:13;13.10;;;3.50;;
3022;SDS011;1521;53.584;9.938;2023-08-20T10:38:46;6.80;;;2.90;;
3022;SDS011;1521;53.584;9.938;2023-08-20T10:41:12;6.03;;;3.00;;
3022;SDS011;1521;53.584;9.938;2023-08-20T10:43:38;9.47;;;2.97;;
3022;SDS011;1521;53.584;9.938;2023-08-20T10:48:31;6.40;;;2.47;;
3022;SDS011;1521;53.584;9.938;2023-08-20T10:51:05;14.53;;;3.23;;
3022;SDS011;1521;53.584;9.938;2023-08-20T10:53:35;10.20;;;3.07;;
3022;SDS011;1521;53.584;9.938;2023-08-20T10:56:07;7.57;;;2.80;;
3022;SDS011;1521;53.584;9.938;2023-08-20T10:58:43;7.77;;;2.93;;
3022;SDS011;1521;53.584;9.938;2023-08-20T11:01:13;5.90;;;3.20;;
3022;SDS011;1521;53.584;9.938;2023-08-20T11:03:46;6.70;;;3.00;;
3022;SDS011;1521;53.584;9.938;2023-08-20T11:06:16;8.93;;;3.13;;
3022;SDS011;1521;53.584;9.938;2023-08-20T11:08:43;7.57;;;2.70;;
3022;SDS011;1521;53.584;9.938;2023-08-20T11:11:09;6.17;;;2.90;;
3022;SDS011;1521;53.584;9.938;2023-08-20T11:13:36;6.10;;;2.73;;
3022;SDS011;1521;53.584;9.938;2023-08-20T11:16:02;9.27;;;2.77;;
3022;SDS011;1521;53.584;9.938;2023-08-20T11:18:29;8.20;;;3.10;;
3022;SDS011;1521;53.584;9.938;2023-08-20T11:20:58;9.30;;;2.90;;
3022;SDS011;1521;53.584;9.938;2023-08-20T11:23:24;5.23;;;2.50;;
3022;SDS011;1521;53.584;9.938;2023-08-20T11:25:50;10.07;;;2.90;;
3022;SDS011;1521;53.584;9.938;2023-08-20T11:28:16;12.27;;;3.13;;
3022;SDS011;1521;53.584;9.938;2023-08-20T11:30:42;8.53;;;3.10;;
3022;SDS011;1521;53.584;9.938;2023-08-20T11:33:08;7.80;;;2.80;;
3022;SDS011;1521;53.584;9.938;2023-08-20T11:35:34;5.13;;;2.50;;
3022;SDS011;1521;53.584;9.938;2023-08-20T11:38:00;6.60;;;2.37;;
3022;SDS011;1521;53.584;9.938;2023-08-20T11:40:27;5.50;;;2.60;;
3022;SDS011;1521;53.584;9.938;2023-08-20T11:42:53;5.03;;;2.60;;
3022;SDS011;1521;53.584;9.938;2023-08-20T11:45:18;5.53;;;2.20;;
3022;SDS011;1521;53.584;9.938;2023-08-20T11:47:44;5.47;;;2.33;;
3022;SDS011;1521;53.584;9.938;2023-08-20T11:50:10;6.77;;;2.73;;
3022;SDS011;1521;53.584;9.938;2023-08-20T11:52:36;7.77;;;2.90;;
3022;SDS011;1521;53.584;9.938;2023-08-20T11:55:02;3.43;;;2.50;;
3022;SDS011;1521;53.584;9.938;2023-08-20T11:57:29;5.87;;;2.67;;
3022;SDS011;1521;53.584;9.938;2023-08-20T11:59:55;7.00;;;2.70;;
3022;SDS011;1521;53.584;9.938;2023-08-20T12:02:25;6.33;;;2.80;;
3022;SDS011;1521;53.584;9.938;2023-08-20T12:04:52;6.87;;;2.93;;
3022;SDS011;1521;53.584;9.938;2023-08-20T12:07:24;7.10;;;2.50;;
3022;SDS011;1521;53.584;9.938;2023-08-20T12:09:51;6.93;;;2.97;;
3022;SDS011;1521;53.584;9.938;2023-08-20T12:12:18;6.83;;;3.03;;
3022;SDS011;1521;53.584;9.938;2023-08-20T12:14:45;7.63;;;2.70;;
3022;SDS011;1521;53.584;9.938;2023-08-20T12:17:11;13.23;;;3.27;;
3022;SDS011;1521;53.584;9.938;2023-08-20T12:19:37;7.73;;;2.60;;
3022;SDS011;1521;53.584;9.938;2023-08-20T12:22:02;8.33;;;2.60;;
3022;SDS011;1521;53.584;9.938;2023-08-20T12:24:28;6.27;;;2.50;;
3022;SDS011;1521;53.584;9.938;2023-08-20T12:26:54;7.33;;;2.60;;
3022;SDS011;1521;53.584;9.938;2023-08-20T12:29:20;7.03;;;2.80;;
3022;SDS011;1521;53.584;9.938;2023-08-20T12:31:46;6.73;;;2.43;;
3022;SDS011;1521;53.584;9.938;2023-08-20T12:34:11;5.23;;;2.60;;
3022;SDS011;1521;53.584;9.938;2023-08-20T12:36:37;2.80;;;2.03;;
3022;SDS011;1521;53.584;9.938;2023-08-20T12:39:03;4.57;;;2.40;;
3022;SDS011;1521;53.584;9.938;2023-08-20T12:41:29;6.30;;;2.60;;
3022;SDS011;1521;53.584;9.938;2023-08-20T12:43:56;4.30;;;2.83;;
3022;SDS011;1521;53.584;9.938;2023-08-20T12:46:22;5.53;;;2.80;;
3022;SDS011;1521;53.584;9.938;2023-08-20T12:48:47;6.27;;;2.70;;
3022;SDS011;1521;53.584;9.938;2023-08-20T12:51:13;6.13;;;2.73;;
3022;SDS011;1521;53.584;9.938;2023-08-20T12:53:41;7.20;;;2.60;;
3022;SDS011;1521;53.584;9.938;2023-08-20T12:56:06;5.33;;;3.13;;
3022;SDS011;1521;53.584;9.938;2023-08-20T12:58:32;6.70;;;2.90;;
3022;SDS011;1521;53.584;9.938;2023-08-20T13:00:57;7.67;;;2.93;;
3022;SDS011;1521;53.584;9.938;2023-08-20T13:03:23;4.90;;;2.60;;
3022;SDS011;1521;53.584;9.938;2023-08-20T13:05:49;5.60;;;2.87;;
3022;SDS011;1521;53.584;9.938;2023-08-20T13:08:15;5.30;;;2.70;;
3022;SDS011;1521;53.584;9.938;2023-08-20T13:10:41;7.07;;;3.07;;
3022;SDS011;1521;53.584;9.938;2023-08-20T13:13:10;5.23;;;2.50;;
3022;SDS011;1521;53.584;9.938;2023-08-20T13:15:37;6.70;;;2.80;;
3022;SDS011;1521;53.584;9.938;2023-08-20T13:18:03;7.80;;;2.57;;
3022;SDS011;1521;53.584;9.938;2023-08-20T13:20:29;6.57;;;2.90;;
3022;SDS011;1521;53.584;9.938;2023-08-20T13:22:55;7.83;;;2.90;;
3022;SDS011;1521;53.584;9.938;2023-08-20T13:25:20;5.80;;;2.90;;
3022;SDS011;1521;53.584;9.938;2023-08-20T13:27:46;10.13;;;2.97;;
3022;SDS011;1521;53.584;9.938;2023-08-20T13:30:12;8.73;;;3.10;;
3022;SDS011;1521;53.584;9.938;2023-08-20T13:32:38;5.60;;;3.00;;
3022;SDS011;1521;53.584;9.938;2023-08-20T13:35:04;5.40;;;2.70;;
3022;SDS011;1521;53.584;9.938;2023-08-20T13:37:30;4.73;;;2.20;;
3022;SDS011;1521;53.584;9.938;2023-08-20T13:39:56;7.10;;;3.03;;
3022;SDS011;1521;53.584;9.938;2023-08-20T13:42:22;7.30;;;3.20;;
3022;SDS011;1521;53.584;9.938;2023-08-20T13:44:48;4.33;;;2.83;;
3022;SDS011;1521;53.584;9.938;2023-08-20T13:47:13;6.57;;;2.70;;
3022;SDS011;1521;53.584;9.938;2023-08-20T13:49:39;5.40;;;2.53;;
3022;SDS011;1521;53.584;9.938;2023-08-20T13:52:05;4.30;;;2.50;;
3022;SDS011;1521;53.584;9.938;2023-08-20T13:54:31;4.40;;;2.53;;
3022;SDS011;1521;53.584;9.938;2023-08-20T13:56:57;4.37;;;2.37;;
3022;SDS011;1521;53.584;9.938;2023-08-20T13:59:23;7.40;;;2.57;;
3022;SDS011;1521;53.584;9.938;2023-08-20T14:01:49;5.00;;;2.23;;
3022;SDS011;1521;53.584;9.938;2023-08-20T14:04:14;6.47;;;3.10;;
3022;SDS011;1521;53.584;9.938;2023-08-20T14:06:40;3.77;;;2.27;;
3022;SDS011;1521;53.584;9.938;2023-08-20T14:09:06;7.80;;;2.47;;
3022;SDS011;1521;53.584;9.938;2023-08-20T14:11:32;5.57;;;2.47;;
3022;SDS011;1521;53.584;9.938;2023-08-20T14:13:58;3.37;;;1.80;;
3022;SDS011;1521;53.584;9.938;2023-08-20T14:16:23;2.80;;;1.90;;
3022;SDS011;1521;53.584;9.938;2023-08-20T14:18:49;6.43;;;2.50;;
3022;SDS011;1521;53.584;9.938;2023-08-20T14:21:16;4.03;;;2.57;;
3022;SDS011;1521;53.584;9.938;2023-08-20T14:23:41;5.53;;;2.57;;
3022;SDS011;1521;53.584;9.938;2023-08-20T14:26:07;4.03;;;2.20;;
3022;SDS011;1521;53.584;9.938;2023-08-20T14:28:33;2.87;;;2.27;;
3022;SDS011;1521;53.584;9.938;2023-08-20T14:31:02;3.60;;;2.20;;
3022;SDS011;1521;53.584;9.938;2023-08-20T14:33:29;7.33;;;2.80;;
3022;SDS011;1521;53.584;9.938;2023-08-20T14:35:55;6.80;;;2.50;;
3022;SDS011;1521;53.584;9.938;2023-08-20T14:38:21;6.67;;;2.60;;
3022;SDS011;1521;53.584;9.938;2023-08-20T14:40:46;6.13;;;2.47;;
3022;SDS011;1521;53.584;9.938;2023-08-20T14:43:12;8.20;;;2.90;;
3022;SDS011;1521;53.584;9.938;2023-08-20T14:45:38;4.20;;;2.30;;
3022;SDS011;1521;53.584;9.938;2023-08-20T14:48:03;6.17;;;2.50;;
3022;SDS011;1521;53.584;9.938;2023-08-20T14:50:29;3.83;;;2.00;;
3022;SDS011;1521;53.584;9.938;2023-08-20T14:52:55;4.60;;;2.40;;
3022;SDS011;1521;53.584;9.938;2023-08-20T14:55:21;3.97;;;2.20;;
3022;SDS011;1521;53.584;9.938;2023-08-20T14:57:47;6.63;;;2.20;;
3022;SDS011;1521;53.584;9.938;2023-08-20T15:00:13;7.70;;;2.23;;
3022;SDS011;1521;53.584;9.938;2023-08-20T15:02:48;5.60;;;2.37;;
3022;SDS011;1521;53.584;9.938;2023-08-20T15:05:14;5.33;;;1.90;;
3022;SDS011;1521;53.584;9.938;2023-08-20T15:07:39;3.50;;;1.83;;
3022;SDS011;1521;53.584;9.938;2023-08-20T15:10:05;7.20;;;1.90;;
3022;SDS011;1521;53.584;9.938;2023-08-20T15:12:34;4.27;;;2.20;;
3022;SDS011;1521;53.584;9.938;2023-08-20T15:15:04;4.17;;;2.10;;